createdAt,value
2022-11-10T00:01:16.936Z,1008.65
2022-11-10T00:04:16.978Z,1008.7
2022-11-10T00:07:16.943Z,1008.69
2022-11-10T00:10:16.933Z,1008.71
2022-11-10T00:13:16.930Z,1008.71
2022-11-10T00:16:16.935Z,1008.73
2022-11-10T00:19:16.932Z,1008.79
2022-11-10T00:22:16.924Z,1008.79
2022-11-10T00:25:16.926Z,1008.86
2022-11-10T00:28:16.926Z,1008.93
2022-11-10T00:31:16.930Z,1009.04
2022-11-10T00:34:16.929Z,1009.04
2022-11-10T00:37:16.925Z,1009.14
2022-11-10T00:40:16.925Z,1009.18
2022-11-10T00:43:16.926Z,1009.18
2022-11-10T00:46:16.919Z,1009.23
2022-11-10T00:49:16.919Z,1009.32
2022-11-10T00:52:16.916Z,1009.36
2022-11-10T00:55:16.920Z,1009.39
2022-11-10T00:58:16.916Z,1009.46
2022-11-10T01:01:16.955Z,1009.52
2022-11-10T01:04:16.919Z,1009.59
2022-11-10T01:07:16.909Z,1009.66
2022-11-10T01:10:16.911Z,1009.72
2022-11-10T01:13:16.910Z,1009.76
2022-11-10T01:16:16.902Z,1009.78
2022-11-10T01:19:16.909Z,1009.8
2022-11-10T01:22:16.905Z,1009.83
2022-11-10T01:25:16.899Z,1009.85
2022-11-10T01:28:16.894Z,1009.87
2022-11-10T01:31:16.898Z,1009.9
2022-11-10T01:34:16.897Z,1009.88
2022-11-10T01:37:16.947Z,1009.96
2022-11-10T01:40:16.928Z,1009.97
2022-11-10T01:43:16.904Z,1010.02
2022-11-10T01:46:16.893Z,1010.06
2022-11-10T01:49:16.888Z,1010.12
2022-11-10T01:52:16.886Z,1010.1
2022-11-10T01:55:16.892Z,1010.12
2022-11-10T01:58:16.892Z,1010.14
2022-11-10T02:01:16.913Z,1010.17
2022-11-10T02:04:16.878Z,1010.24
2022-11-10T02:07:16.933Z,1010.24
2022-11-10T02:10:16.881Z,1010.27
2022-11-10T02:13:16.879Z,1010.25
2022-11-10T02:16:16.879Z,1010.28
2022-11-10T02:19:16.889Z,1010.35
2022-11-10T02:22:16.880Z,1010.36
2022-11-10T02:25:16.870Z,1010.35
2022-11-10T02:28:16.867Z,1010.39
2022-11-10T02:31:16.866Z,1010.42
2022-11-10T02:34:16.866Z,1010.43
2022-11-10T02:37:16.869Z,1010.4
2022-11-10T02:40:16.864Z,1010.43
2022-11-10T02:43:16.862Z,1010.44
2022-11-10T02:46:16.874Z,1010.41
2022-11-10T02:49:16.865Z,1010.4
2022-11-10T02:52:16.872Z,1010.42
2022-11-10T02:55:16.863Z,1010.37
2022-11-10T02:58:16.859Z,1010.32
2022-11-10T03:01:16.927Z,1010.29
2022-11-10T03:04:16.861Z,1010.38
2022-11-10T03:07:16.888Z,1010.51
2022-11-10T03:10:16.857Z,1010.59
2022-11-10T03:13:16.853Z,1010.73
2022-11-10T03:16:16.856Z,1010.81
2022-11-10T03:19:16.845Z,1010.85
2022-11-10T03:22:16.851Z,1010.86
2022-11-10T03:25:16.850Z,1010.81
2022-11-10T03:28:16.848Z,1010.87
2022-11-10T03:31:16.850Z,1010.87
2022-11-10T03:34:16.851Z,1010.98
2022-11-10T03:37:16.843Z,1011.06
2022-11-10T03:40:16.844Z,1011.11
2022-11-10T03:43:16.845Z,1011.11
2022-11-10T03:46:16.842Z,1011.15
2022-11-10T03:49:16.844Z,1011.22
2022-11-10T03:52:16.835Z,1011.21
2022-11-10T03:55:16.846Z,1011.22
2022-11-10T03:58:16.848Z,1011.31
2022-11-10T04:01:16.905Z,1011.37
2022-11-10T04:04:16.844Z,1011.4
2022-11-10T04:07:16.839Z,1011.42
2022-11-10T04:10:16.837Z,1011.52
2022-11-10T04:13:16.829Z,1011.51
2022-11-10T04:16:16.838Z,1011.45
2022-11-10T04:19:16.842Z,1011.52
2022-11-10T04:22:16.827Z,1011.58
2022-11-10T04:25:16.850Z,1011.65
2022-11-10T04:28:16.828Z,1011.71
2022-11-10T04:31:16.828Z,1011.74
2022-11-10T04:34:16.827Z,1011.77
2022-11-10T04:37:16.826Z,1011.82
2022-11-10T04:40:16.829Z,1011.82
2022-11-10T04:43:16.828Z,1011.76
2022-11-10T04:46:16.830Z,1011.76
2022-11-10T04:49:16.829Z,1011.83
2022-11-10T04:52:16.828Z,1011.79
2022-11-10T04:55:16.822Z,1011.78
2022-11-10T04:58:16.825Z,1011.82
2022-11-10T05:01:16.890Z,1012.03
2022-11-10T05:04:16.817Z,1012.04
2022-11-10T05:07:16.819Z,1012.11
2022-11-10T05:10:16.817Z,1012.21
2022-11-10T05:13:16.818Z,1012.22
2022-11-10T05:16:16.813Z,1012.32
2022-11-10T05:19:16.817Z,1012.29
2022-11-10T05:22:16.815Z,1012.36
2022-11-10T05:25:16.824Z,1012.37
2022-11-10T05:28:16.823Z,1012.42
2022-11-10T05:31:16.816Z,1012.41
2022-11-10T05:34:16.817Z,1012.5
2022-11-10T05:37:16.810Z,1012.55
2022-11-10T05:40:16.812Z,1012.66
2022-11-10T05:43:16.817Z,1012.69
2022-11-10T05:46:16.809Z,1012.74
2022-11-10T05:49:16.811Z,1012.81
2022-11-10T05:52:16.809Z,1012.84
2022-11-10T05:55:16.807Z,1012.8
2022-11-10T05:58:16.800Z,1012.84
2022-11-10T06:01:16.797Z,1012.86
2022-11-10T06:04:16.805Z,1012.95
2022-11-10T06:07:16.863Z,1013.12
2022-11-10T06:10:16.804Z,1013.15
2022-11-10T06:13:16.804Z,1013.15
2022-11-10T06:16:16.801Z,1013.18
2022-11-10T06:19:16.796Z,1013.27
2022-11-10T06:22:16.794Z,1013.39
2022-11-10T06:25:16.797Z,1013.54
2022-11-10T06:28:16.797Z,1013.65
2022-11-10T06:31:16.792Z,1013.64
2022-11-10T06:34:16.788Z,1013.72
2022-11-10T06:37:17.145Z,1013.78
2022-11-10T06:40:17.071Z,1013.89
2022-11-10T06:43:17.067Z,1013.97
2022-11-10T06:46:17.073Z,1014.01
2022-11-10T06:49:17.075Z,1014.04
2022-11-10T06:52:17.235Z,1014.03
2022-11-10T06:55:17.062Z,1014.06
2022-11-10T06:58:17.070Z,1014.15
2022-11-10T07:01:21.355Z,1014.11
2022-11-10T07:04:20.015Z,1014.12
2022-11-10T07:07:17.145Z,1014.2
2022-11-10T07:10:17.054Z,1014.26
2022-11-10T07:13:17.060Z,1014.38
2022-11-10T07:16:20.436Z,1014.5
2022-11-10T07:19:17.049Z,1014.61
2022-11-10T07:22:17.100Z,1014.73
2022-11-10T07:25:17.071Z,1014.83
2022-11-10T07:28:17.076Z,1014.8
2022-11-10T07:31:17.079Z,1014.88
2022-11-10T07:34:17.085Z,1014.96
2022-11-10T07:37:17.113Z,1015.04
2022-11-10T07:40:17.069Z,1015.06
2022-11-10T07:43:17.074Z,1015.06
2022-11-10T07:46:17.074Z,1015.08
2022-11-10T07:49:17.088Z,1015.09
2022-11-10T07:52:17.096Z,1015.13
2022-11-10T07:55:17.075Z,1015.16
2022-11-10T07:58:17.102Z,1015.25
2022-11-10T08:01:17.123Z,1015.31
2022-11-10T08:04:17.077Z,1015.37
2022-11-10T08:07:17.449Z,1015.32
2022-11-10T08:10:17.093Z,1015.36
2022-11-10T08:13:17.088Z,1015.41
2022-11-10T08:16:17.092Z,1015.41
2022-11-10T08:19:17.092Z,1015.38
2022-11-10T08:22:17.092Z,1015.43
2022-11-10T08:25:17.085Z,1015.42
2022-11-10T08:28:17.089Z,1015.43
2022-11-10T08:31:17.085Z,1015.42
2022-11-10T08:34:17.102Z,1015.42
2022-11-10T08:37:17.132Z,1015.46
2022-11-10T08:40:17.090Z,1015.52
2022-11-10T08:43:17.090Z,1015.54
2022-11-10T08:46:17.093Z,1015.52
2022-11-10T08:49:17.084Z,1015.59
2022-11-10T08:52:17.086Z,1015.56
2022-11-10T08:55:17.089Z,1015.6
2022-11-10T08:58:17.085Z,1015.65
2022-11-10T09:01:17.082Z,1015.73
2022-11-10T09:04:17.089Z,1015.75
2022-11-10T09:07:17.119Z,1015.8
2022-11-10T09:10:17.081Z,1015.91
2022-11-10T09:13:17.080Z,1015.95
2022-11-10T09:16:17.076Z,1015.95
2022-11-10T09:19:19.941Z,1015.93
2022-11-10T09:22:17.083Z,1015.96
2022-11-10T09:25:17.076Z,1016.03
2022-11-10T09:28:17.082Z,1016.06
2022-11-10T09:31:17.076Z,1016.11
2022-11-10T09:34:17.071Z,1016.23
2022-11-10T09:37:17.068Z,1016.22
2022-11-10T09:40:17.069Z,1016.28
2022-11-10T09:43:17.070Z,1016.28
2022-11-10T09:46:17.075Z,1016.31
2022-11-10T09:49:17.063Z,1016.41
2022-11-10T09:52:17.063Z,1016.48
2022-11-10T09:55:17.071Z,1016.56
2022-11-10T09:58:17.064Z,1016.6
2022-11-10T10:01:17.124Z,1016.58
2022-11-10T10:04:17.074Z,1016.65
2022-11-10T10:07:17.133Z,1016.69
2022-11-10T10:10:17.477Z,1016.67
2022-11-10T10:13:17.070Z,1016.66
2022-11-10T10:16:17.068Z,1016.73
2022-11-10T10:19:17.055Z,1016.76
2022-11-10T10:22:17.081Z,1016.72
2022-11-10T10:25:17.080Z,1016.76
2022-11-10T10:28:17.074Z,1016.78
2022-11-10T10:31:17.079Z,1016.83
2022-11-10T10:34:17.075Z,1016.9
2022-11-10T10:37:17.093Z,1016.89
2022-11-10T10:40:17.069Z,1016.87
2022-11-10T10:43:17.066Z,1016.87
2022-11-10T10:46:17.064Z,1016.78
2022-11-10T10:49:29.418Z,1016.73
2022-11-10T10:52:17.075Z,1016.8
2022-11-10T10:55:17.060Z,1016.71
2022-11-10T10:58:17.064Z,1016.66
2022-11-10T11:01:17.173Z,1016.75
2022-11-10T11:04:17.062Z,1016.74
2022-11-10T11:07:17.098Z,1016.73
2022-11-10T11:10:17.146Z,1016.69
2022-11-10T11:13:17.053Z,1016.78
2022-11-10T11:16:17.048Z,1016.78
2022-11-10T11:19:17.073Z,1016.78
2022-11-10T11:22:17.063Z,1016.81
2022-11-10T11:25:17.071Z,1016.88
2022-11-10T11:28:17.069Z,1016.89
2022-11-10T11:31:17.072Z,1016.95
2022-11-10T11:34:17.070Z,1016.94
2022-11-10T11:37:19.515Z,1016.92
2022-11-10T11:40:17.065Z,1016.93
2022-11-10T11:43:17.061Z,1016.93
2022-11-10T11:46:17.063Z,1016.9
2022-11-10T11:49:17.066Z,1016.89
2022-11-10T11:52:17.057Z,1016.92
2022-11-10T11:55:17.125Z,1016.95
2022-11-10T11:58:17.059Z,1016.93
2022-11-10T12:01:17.054Z,1016.91
2022-11-10T12:04:17.064Z,1016.95
2022-11-10T12:07:17.175Z,1016.88
2022-11-10T12:10:17.057Z,1016.88
2022-11-10T12:13:17.052Z,1016.89
2022-11-10T12:16:17.045Z,1016.93
2022-11-10T12:19:17.048Z,1016.88
2022-11-10T12:22:17.054Z,1016.91
2022-11-10T12:25:17.057Z,1016.89
2022-11-10T12:28:17.048Z,1016.87
2022-11-10T12:31:17.045Z,1016.9
2022-11-10T12:34:17.044Z,1016.97
2022-11-10T12:37:17.051Z,1017
2022-11-10T12:40:17.040Z,1017.02
2022-11-10T12:43:17.046Z,1017.06
2022-11-10T12:46:17.043Z,1017.07
2022-11-10T12:49:17.036Z,1017.05
2022-11-10T12:52:17.179Z,1017.02
2022-11-10T12:55:17.061Z,1017.02
2022-11-10T12:58:17.067Z,1016.99
2022-11-10T13:01:17.096Z,1017.04
2022-11-10T13:04:17.064Z,1017.04
2022-11-10T13:07:17.114Z,1017.1
2022-11-10T13:10:17.108Z,1017.12
2022-11-10T13:13:17.086Z,1017.14
2022-11-10T13:16:17.091Z,1017.24
2022-11-10T13:19:17.089Z,1017.22
2022-11-10T13:22:19.500Z,1017.26
2022-11-10T13:25:17.109Z,1017.24
2022-11-10T13:28:17.109Z,1017.23
2022-11-10T13:31:17.109Z,1017.22
2022-11-10T13:34:17.112Z,1017.23
2022-11-10T13:37:17.186Z,1017.22
2022-11-10T13:40:17.103Z,1017.2
2022-11-10T13:43:17.092Z,1017.23
2022-11-10T13:46:17.103Z,1017.16
2022-11-10T13:49:17.099Z,1017.2
2022-11-10T13:52:17.102Z,1017.25
2022-11-10T13:55:17.102Z,1017.27
2022-11-10T13:58:17.099Z,1017.24
2022-11-10T14:01:17.111Z,1017.23
2022-11-10T14:04:17.113Z,1017.24
2022-11-10T14:07:17.191Z,1017.31
2022-11-10T14:10:17.091Z,1017.28
2022-11-10T14:13:17.098Z,1017.33
2022-11-10T14:16:17.084Z,1017.38
2022-11-10T14:19:17.088Z,1017.4
2022-11-10T14:22:17.098Z,1017.44
2022-11-10T14:25:17.080Z,1017.41
2022-11-10T14:28:17.087Z,1017.4
2022-11-10T14:31:17.078Z,1017.47
2022-11-10T14:34:17.081Z,1017.45
2022-11-10T14:37:17.121Z,1017.51
2022-11-10T14:40:17.083Z,1017.66
2022-11-10T14:43:17.081Z,1017.65
2022-11-10T14:46:17.075Z,1017.7
2022-11-10T14:49:17.096Z,1017.69
2022-11-10T14:52:17.068Z,1017.69
2022-11-10T14:55:17.073Z,1017.7
2022-11-10T14:58:17.070Z,1017.75
2022-11-10T15:01:17.071Z,1017.84
2022-11-10T15:04:17.069Z,1017.87
2022-11-10T15:07:17.112Z,1017.88
2022-11-10T15:10:17.093Z,1017.93
2022-11-10T15:13:17.091Z,1017.93
2022-11-10T15:16:17.094Z,1017.87
2022-11-10T15:19:17.097Z,1017.82
2022-11-10T15:22:17.104Z,1017.82
2022-11-10T15:25:17.095Z,1017.86
2022-11-10T15:28:17.089Z,1017.93
2022-11-10T15:31:17.087Z,1017.94
2022-11-10T15:34:17.089Z,1017.89
2022-11-10T15:37:17.100Z,1017.86
2022-11-10T15:40:17.095Z,1017.82
2022-11-10T15:43:17.096Z,1017.94
2022-11-10T15:46:18.335Z,1017.9
2022-11-10T15:49:17.092Z,1017.9
2022-11-10T15:52:17.093Z,1017.93
2022-11-10T15:55:17.099Z,1017.96
2022-11-10T15:58:17.089Z,1018.02
2022-11-10T16:01:17.230Z,1018.13
2022-11-10T16:04:17.097Z,1018.2
2022-11-10T16:07:17.140Z,1018.26
2022-11-10T16:10:17.089Z,1018.23
2022-11-10T16:13:17.088Z,1018.23
2022-11-10T16:16:17.089Z,1018.25
2022-11-10T16:19:17.091Z,1018.25
2022-11-10T16:22:17.094Z,1018.26
2022-11-10T16:25:22.757Z,1018.23
2022-11-10T16:28:17.081Z,1018.24
2022-11-10T16:31:17.086Z,1018.22
2022-11-10T16:34:17.088Z,1018.28
2022-11-10T16:37:17.085Z,1018.29
2022-11-10T16:40:17.080Z,1018.3
2022-11-10T16:43:17.077Z,1018.28
2022-11-10T16:46:17.069Z,1018.3
2022-11-10T16:49:17.071Z,1018.29
2022-11-10T16:52:17.072Z,1018.37
2022-11-10T16:55:17.066Z,1018.4
2022-11-10T16:58:17.071Z,1018.44
2022-11-10T17:01:17.098Z,1018.47
2022-11-10T17:04:17.072Z,1018.56
2022-11-10T17:07:17.145Z,1018.63
2022-11-10T17:10:17.070Z,1018.74
2022-11-10T17:13:17.067Z,1018.82
2022-11-10T17:16:17.063Z,1018.86
2022-11-10T17:19:17.060Z,1018.83
2022-11-10T17:22:17.063Z,1018.86
2022-11-10T17:25:17.062Z,1018.89
2022-11-10T17:28:17.067Z,1018.91
2022-11-10T17:31:17.059Z,1018.87
2022-11-10T17:34:17.060Z,1018.99
2022-11-10T17:37:17.069Z,1019.06
2022-11-10T17:40:17.061Z,1019.13
2022-11-10T17:43:17.047Z,1019.11
2022-11-10T17:46:17.051Z,1019.15
2022-11-10T17:49:17.051Z,1019.21
2022-11-10T17:52:17.050Z,1019.18
2022-11-10T17:55:17.052Z,1019.16
2022-11-10T17:58:17.054Z,1019.19
2022-11-10T18:01:17.159Z,1019.19
2022-11-10T18:04:17.049Z,1019.27
2022-11-10T18:07:17.093Z,1019.27
2022-11-10T18:10:17.033Z,1019.22
2022-11-10T18:13:17.036Z,1019.12
2022-11-10T18:16:17.036Z,1019.06
2022-11-10T18:19:17.043Z,1019.07
2022-11-10T18:22:17.039Z,1019.14
2022-11-10T18:25:17.032Z,1019.17
2022-11-10T18:28:17.036Z,1019.19
2022-11-10T18:31:17.030Z,1019.22
2022-11-10T18:34:17.024Z,1019.24
2022-11-10T18:37:17.333Z,1019.31
2022-11-10T18:40:17.131Z,1019.37
2022-11-10T18:43:17.121Z,1019.46
2022-11-10T18:46:17.118Z,1019.48
2022-11-10T18:49:17.116Z,1019.49
2022-11-10T18:52:17.115Z,1019.48
2022-11-10T18:55:17.118Z,1019.53
2022-11-10T18:58:17.108Z,1019.63
2022-11-10T19:01:17.150Z,1019.55
2022-11-10T19:04:17.112Z,1019.47
2022-11-10T19:07:17.197Z,1019.46
2022-11-10T19:10:17.105Z,1019.53
2022-11-10T19:13:17.098Z,1019.74
2022-11-10T19:16:17.100Z,1019.8
2022-11-10T19:19:17.094Z,1019.75
2022-11-10T19:22:17.109Z,1019.78
2022-11-10T19:25:17.097Z,1019.87
2022-11-10T19:28:17.091Z,1019.91
2022-11-10T19:31:17.103Z,1019.84
2022-11-10T19:34:17.112Z,1019.81
2022-11-10T19:37:17.113Z,1019.8
2022-11-10T19:40:17.096Z,1019.83
2022-11-10T19:43:17.089Z,1019.84
2022-11-10T19:46:17.102Z,1019.82
2022-11-10T19:49:17.088Z,1019.78
2022-11-10T19:52:17.097Z,1019.76
2022-11-10T19:55:17.087Z,1019.89
2022-11-10T19:58:17.088Z,1019.94
2022-11-10T20:01:17.174Z,1020.02
2022-11-10T20:04:17.078Z,1020.01
2022-11-10T20:07:17.178Z,1020.07
2022-11-10T20:10:17.082Z,1020.04
2022-11-10T20:13:17.073Z,1020.06
2022-11-10T20:16:17.079Z,1020.05
2022-11-10T20:19:17.076Z,1020.1
2022-11-10T20:22:17.086Z,1020.14
2022-11-10T20:25:17.096Z,1020.16
2022-11-10T20:28:17.161Z,1020.19
2022-11-10T20:31:17.081Z,1020.12
2022-11-10T20:34:17.080Z,1020.05
2022-11-10T20:37:17.081Z,1020.06
2022-11-10T20:40:42.698Z,1020.03
2022-11-10T20:43:17.078Z,1020.12
2022-11-10T20:46:27.820Z,1020.1
2022-11-10T20:49:17.084Z,1020.1
2022-11-10T20:52:17.084Z,1020.14
2022-11-10T20:55:18.380Z,1020.17
2022-11-10T20:58:17.082Z,1020.24
2022-11-10T21:01:17.180Z,1020.25
2022-11-10T21:04:17.075Z,1020.3
2022-11-10T21:07:17.188Z,1020.29
2022-11-10T21:10:17.071Z,1020.26
2022-11-10T21:13:17.074Z,1020.26
2022-11-10T21:16:17.074Z,1020.31
2022-11-10T21:19:17.076Z,1020.33
2022-11-10T21:22:17.069Z,1020.35
2022-11-10T21:25:17.065Z,1020.3
2022-11-10T21:28:17.075Z,1020.32
2022-11-10T21:31:17.068Z,1020.36
2022-11-10T21:34:17.066Z,1020.4
2022-11-10T21:37:17.093Z,1020.4
2022-11-10T21:40:17.071Z,1020.33
2022-11-10T21:43:17.061Z,1020.28
2022-11-10T21:46:17.064Z,1020.36
2022-11-10T21:49:17.063Z,1020.37
2022-11-10T21:52:17.064Z,1020.38
2022-11-10T21:55:17.069Z,1020.36
2022-11-10T21:58:17.076Z,1020.4
2022-11-10T22:01:17.105Z,1020.41
2022-11-10T22:04:17.071Z,1020.37
2022-11-10T22:07:17.089Z,1020.31
2022-11-10T22:10:17.060Z,1020.32
2022-11-10T22:13:17.054Z,1020.41
2022-11-10T22:16:17.069Z,1020.44
2022-11-10T22:19:17.056Z,1020.39
2022-11-10T22:22:17.052Z,1020.33
2022-11-10T22:25:17.051Z,1020.36
2022-11-10T22:28:17.045Z,1020.35
2022-11-10T22:31:17.055Z,1020.39
2022-11-10T22:34:17.052Z,1020.41
2022-11-10T22:37:17.052Z,1020.46
2022-11-10T22:40:17.046Z,1020.43
2022-11-10T22:43:17.047Z,1020.27
2022-11-10T22:46:17.046Z,1020.3
2022-11-10T22:49:17.043Z,1020.38
2022-11-10T22:52:17.046Z,1020.44
2022-11-10T22:55:17.046Z,1020.45
2022-11-10T22:58:17.047Z,1020.54
2022-11-10T23:01:17.143Z,1020.5
2022-11-10T23:04:17.043Z,1020.53
2022-11-10T23:07:17.066Z,1020.49
2022-11-10T23:10:17.037Z,1020.47
2022-11-10T23:13:17.044Z,1020.49
2022-11-10T23:16:17.040Z,1020.49
2022-11-10T23:19:17.042Z,1020.57
2022-11-10T23:22:17.033Z,1020.5
2022-11-10T23:25:17.040Z,1020.46
2022-11-10T23:28:17.042Z,1020.45
2022-11-10T23:31:17.035Z,1020.41
2022-11-10T23:34:17.028Z,1020.36
2022-11-10T23:37:17.027Z,1020.44
2022-11-10T23:40:17.032Z,1020.51
2022-11-10T23:43:17.032Z,1020.57
2022-11-10T23:46:17.035Z,1020.61
2022-11-10T23:49:17.032Z,1020.65
2022-11-10T23:52:17.031Z,1020.63
2022-11-10T23:55:17.025Z,1020.62
2022-11-10T23:58:17.021Z,1020.62
